Impacts TAF Board INFO
FOR SITUATIONAL AWARENESS. NOT TO BE USED FOR FLIGHT PLANNING PURPOSES.
IDs:

KMCO - Orlando Intl, FL, US

Issued at 1120 UTC 14 Dec 2017
Updated at 1509 UTC 14 Dec 2017
Potential Impact None Slight Moderate High
Time<<15/16Z 15/17Z 15/18Z 15/19Z 15/20Z 15/21Z 15/22Z 15/23Z 16/00Z 16/01Z 16/02Z 16/03Z 16/04Z
Type PRVL PRVL
VIS >6 >6
CIG 40 40
Cover BKN BKN
FltCat VFR VFR
WX -- --
WDir 200 200
WSpd 6 6
WGst -- --

Raw TAF
KMCO 141120Z 1412/1518 21003KT P6SM FEW035 SCT250
  FM141500 22008KT P6SM BKN040
  FM150000 20004KT P6SM BKN040
  FM151400 20006KT P6SM BKN040


METAR Board
Radar Display
Forecast Discussion

FOR SITUATIONAL AWARENESS. NOT TO BE USED FOR FLIGHT PLANNING PURPOSES.